createdAt,value
2023-05-15T00:00:29.050Z,30.70
2023-05-15T00:02:57.717Z,28.90
2023-05-15T00:05:26.571Z,30.88
2023-05-15T00:07:55.504Z,32.72
2023-05-15T00:10:25.272Z,30.90
2023-05-15T00:12:53.716Z,30.40
2023-05-15T00:15:22.294Z,28.88
2023-05-15T00:17:50.683Z,30.38
2023-05-15T00:20:19.132Z,28.95
2023-05-15T00:22:47.513Z,28.95
2023-05-15T00:25:16.163Z,31.88
2023-05-15T00:27:46.044Z,31.15
2023-05-15T00:30:15.834Z,30.20
2023-05-15T00:32:44.513Z,31.42
2023-05-15T00:35:12.983Z,32.60
2023-05-15T00:37:41.351Z,30.58
2023-05-15T00:40:13.550Z,32.83
2023-05-15T00:42:42.760Z,33.10
2023-05-15T00:45:14.396Z,30.75
2023-05-15T00:47:44.262Z,34.13
2023-05-15T00:50:13.556Z,36.47
2023-05-15T00:52:41.924Z,34.50
2023-05-15T00:55:10.921Z,38.78
2023-05-15T00:57:41.031Z,39.20
2023-05-15T01:00:10.640Z,43.25
2023-05-15T01:02:40.589Z,42.08
2023-05-15T01:05:09.717Z,41.90
2023-05-15T01:07:46.352Z,45.47
2023-05-15T01:10:16.387Z,39.40
2023-05-15T01:12:46.749Z,40.90
2023-05-15T01:15:16.425Z,45.90
2023-05-15T01:17:48.010Z,40.83
2023-05-15T01:20:19.652Z,46.75
2023-05-15T01:23:13.067Z,45.60
2023-05-15T01:26:25.905Z,46.35
2023-05-15T01:29:01.479Z,45.28
2023-05-15T01:31:32.829Z,46.40
2023-05-15T01:34:08.008Z,44.95
2023-05-15T01:36:40.197Z,49.90
2023-05-15T01:39:11.943Z,46.47
2023-05-15T01:41:46.508Z,48.53
2023-05-15T01:44:21.361Z,46.07
2023-05-15T01:46:53.563Z,51.45
2023-05-15T01:49:27.495Z,47.33
2023-05-15T01:52:02.577Z,44.53
2023-05-15T01:54:32.764Z,50.47
2023-05-15T01:57:01.304Z,48.78
2023-05-15T01:59:32.716Z,44.83
2023-05-15T02:02:02.790Z,46.80
2023-05-15T02:04:31.973Z,40.53
2023-05-15T02:07:02.140Z,44.67
2023-05-15T02:09:31.966Z,46.63
2023-05-15T02:12:01.893Z,44.20
2023-05-15T02:14:33.231Z,41.50
2023-05-15T02:17:01.670Z,42.22
2023-05-15T02:19:30.204Z,47.22
2023-05-15T02:21:59.209Z,47.40
2023-05-15T02:24:27.595Z,43.67
2023-05-15T02:27:03.523Z,49.10
2023-05-15T02:29:40.912Z,46.00
2023-05-15T02:32:20.117Z,47.22
2023-05-15T02:35:03.246Z,47.95
2023-05-15T02:37:34.293Z,49.50
2023-05-15T02:40:07.029Z,52.90
2023-05-15T02:42:37.080Z,49.28
2023-05-15T02:45:09.373Z,49.92
2023-05-15T02:47:38.337Z,54.63
2023-05-15T02:50:08.172Z,48.88
2023-05-15T02:52:39.475Z,52.88
2023-05-15T02:55:09.278Z,51.40
2023-05-15T02:57:37.729Z,51.33
2023-05-15T03:00:11.666Z,50.92
2023-05-15T03:02:40.192Z,48.22
2023-05-15T03:05:10.061Z,51.92
2023-05-15T03:07:38.564Z,49.20
2023-05-15T03:10:08.283Z,52.47
2023-05-15T03:12:37.262Z,50.67
2023-05-15T03:15:08.342Z,48.80
2023-05-15T03:17:36.782Z,51.53
2023-05-15T03:20:06.335Z,51.38
2023-05-15T03:22:34.781Z,49.38
2023-05-15T03:25:03.152Z,53.45
2023-05-15T03:27:31.707Z,47.00
2023-05-15T03:30:03.371Z,49.55
2023-05-15T03:32:34.556Z,53.13
2023-05-15T03:35:03.215Z,52.00
2023-05-15T03:37:31.552Z,54.95
2023-05-15T03:39:59.948Z,57.90
2023-05-15T03:42:29.133Z,52.97
2023-05-15T03:44:57.576Z,58.30
2023-05-15T03:47:26.182Z,57.67
2023-05-15T03:49:55.997Z,55.83
2023-05-15T03:52:24.763Z,63.78
2023-05-15T03:54:53.236Z,63.65
2023-05-15T03:57:21.638Z,54.58
2023-05-15T03:59:49.984Z,57.60
2023-05-15T04:02:18.343Z,55.53
2023-05-15T04:04:46.717Z,53.40
2023-05-15T04:07:16.913Z,55.10
2023-05-15T04:09:45.320Z,60.53
2023-05-15T04:12:14.115Z,55.50
2023-05-15T04:14:42.882Z,61.70
2023-05-15T04:17:11.256Z,63.90
2023-05-15T04:19:41.113Z,68.88
2023-05-15T04:22:11.322Z,67.28
2023-05-15T04:24:41.041Z,61.97
2023-05-15T04:27:09.454Z,58.00
2023-05-15T04:29:37.950Z,60.83
2023-05-15T04:32:06.336Z,54.13
2023-05-15T04:34:35.134Z,58.63
2023-05-15T04:37:03.559Z,56.85
2023-05-15T04:39:31.939Z,52.95
2023-05-15T04:42:02.224Z,50.90
2023-05-15T04:44:30.936Z,59.15
2023-05-15T04:46:59.257Z,49.45
2023-05-15T04:49:27.647Z,56.25
2023-05-15T04:51:56.016Z,59.20
2023-05-15T04:54:24.539Z,53.05
2023-05-15T04:56:54.296Z,55.72
2023-05-15T04:59:24.994Z,51.55
2023-05-15T05:01:53.469Z,52.97
2023-05-15T05:04:23.272Z,56.13
2023-05-15T05:06:53.835Z,55.72
2023-05-15T05:09:22.588Z,53.65
2023-05-15T05:11:50.981Z,48.55
2023-05-15T05:14:20.594Z,49.15
2023-05-15T05:16:50.345Z,47.80
2023-05-15T05:19:18.941Z,49.53
2023-05-15T05:21:47.695Z,49.22
2023-05-15T05:24:16.274Z,54.17
2023-05-15T05:26:45.184Z,55.10
2023-05-15T05:29:13.915Z,58.05
2023-05-15T05:31:42.447Z,56.08
2023-05-15T05:34:12.179Z,52.63
2023-05-15T05:36:40.707Z,59.50
2023-05-15T05:39:09.138Z,59.95
2023-05-15T05:41:37.472Z,55.53
2023-05-15T05:44:06.176Z,56.92
2023-05-15T05:46:34.640Z,60.28
2023-05-15T05:49:03.263Z,52.30
2023-05-15T05:51:33.226Z,51.53
2023-05-15T05:54:01.652Z,58.70
2023-05-15T05:56:30.047Z,49.00
2023-05-15T05:58:59.545Z,51.17
2023-05-15T06:01:28.260Z,51.78
2023-05-15T06:03:57.438Z,49.08
2023-05-15T06:06:26.143Z,51.65
2023-05-15T06:08:56.606Z,52.53
2023-05-15T06:11:25.679Z,49.72
2023-05-15T06:13:54.158Z,50.65
2023-05-15T06:16:23.039Z,50.53
2023-05-15T06:18:51.472Z,45.10
2023-05-15T06:21:19.854Z,49.33
2023-05-15T06:23:48.462Z,47.65
2023-05-15T06:26:18.245Z,41.67
2023-05-15T06:28:46.683Z,43.53
2023-05-15T06:31:15.040Z,43.92
2023-05-15T06:33:43.432Z,47.10
2023-05-15T06:36:12.130Z,42.47
2023-05-15T06:38:40.644Z,44.67
2023-05-15T06:41:08.968Z,54.42
2023-05-15T06:43:38.697Z,45.70
2023-05-15T06:46:07.165Z,44.13
2023-05-15T06:48:35.552Z,47.67
2023-05-15T06:51:04.710Z,43.28
2023-05-15T06:53:58.832Z,44.00
2023-05-15T06:56:27.174Z,43.08
2023-05-15T06:58:56.854Z,42.25
2023-05-15T07:01:36.962Z,43.15
2023-05-15T07:04:06.541Z,39.22
2023-05-15T07:06:36.297Z,41.58
2023-05-15T07:09:04.828Z,38.17
2023-05-15T07:11:37.264Z,38.45
2023-05-15T07:14:07.554Z,35.15
2023-05-15T07:16:36.132Z,33.70
2023-05-15T07:19:12.275Z,35.38
2023-05-15T07:21:40.951Z,32.72
2023-05-15T07:24:09.513Z,30.98
2023-05-15T07:26:50.355Z,30.50
2023-05-15T07:29:34.593Z,30.98
2023-05-15T07:32:03.467Z,31.00
2023-05-15T07:34:31.935Z,31.92
2023-05-15T07:37:00.314Z,27.80
2023-05-15T07:39:28.680Z,28.23
2023-05-15T07:41:57.114Z,28.75
2023-05-15T07:44:25.455Z,26.15
2023-05-15T07:46:56.336Z,28.08
2023-05-15T07:49:24.682Z,25.95
2023-05-15T07:51:53.053Z,26.08
2023-05-15T07:54:21.807Z,27.17
2023-05-15T07:56:50.292Z,28.60
2023-05-15T07:59:18.663Z,27.10
2023-05-15T08:01:47.349Z,27.15
2023-05-15T08:04:17.403Z,22.10
2023-05-15T08:06:55.382Z,24.27
2023-05-15T08:09:24.052Z,25.17
2023-05-15T08:11:52.603Z,26.52
2023-05-15T08:14:24.974Z,26.17
2023-05-15T08:16:54.683Z,24.33
2023-05-15T08:19:24.444Z,24.83
2023-05-15T08:21:52.868Z,25.85
2023-05-15T08:27:09.152Z,19.88
2023-05-15T08:29:39.496Z,26.77
2023-05-15T08:32:20.702Z,24.80
2023-05-15T08:34:50.780Z,23.88
2023-05-15T08:37:19.202Z,21.40
2023-05-15T08:39:49.711Z,22.92
2023-05-15T08:42:46.267Z,21.27
2023-05-15T08:45:15.619Z,24.02
2023-05-15T08:47:44.489Z,21.05
2023-05-15T08:50:25.913Z,24.38
2023-05-15T08:52:58.330Z,21.67
2023-05-15T08:55:27.803Z,21.42
2023-05-15T08:57:56.963Z,21.73
2023-05-15T09:00:36.128Z,22.77
2023-05-15T09:03:04.900Z,21.30
2023-05-15T09:05:40.136Z,20.15
2023-05-15T09:08:29.164Z,20.52
2023-05-15T09:10:59.755Z,20.52
2023-05-15T09:13:28.459Z,20.95
2023-05-15T09:15:57.172Z,21.63
2023-05-15T09:18:51.095Z,19.77
2023-05-15T09:21:29.067Z,19.38
2023-05-15T09:24:29.110Z,20.75
2023-05-15T09:27:06.243Z,21.42
2023-05-15T09:30:09.363Z,18.35
2023-05-15T09:32:39.276Z,16.73
2023-05-15T09:35:29.521Z,19.27
2023-05-15T09:38:04.581Z,19.27
2023-05-15T09:40:33.368Z,19.13
2023-05-15T09:43:01.892Z,19.17
2023-05-15T09:46:01.788Z,18.90
2023-05-15T09:48:31.570Z,17.10
2023-05-15T09:51:16.596Z,16.33
2023-05-15T09:53:50.951Z,18.27
2023-05-15T09:56:20.049Z,18.73
2023-05-15T09:59:13.478Z,18.70
2023-05-15T10:01:44.331Z,22.88
2023-05-15T10:04:14.529Z,17.85
2023-05-15T10:07:01.476Z,17.48
2023-05-15T10:09:32.655Z,20.33
2023-05-15T10:12:01.249Z,18.77
2023-05-15T10:14:31.515Z,19.80
2023-05-15T10:17:25.302Z,19.77
2023-05-15T10:19:57.851Z,19.40
2023-05-15T10:22:46.797Z,21.27
2023-05-15T10:25:27.177Z,19.20
2023-05-15T10:27:56.781Z,19.52
2023-05-15T10:30:40.952Z,18.35
2023-05-15T10:33:09.661Z,23.05
2023-05-15T10:35:40.170Z,20.15
2023-05-15T10:38:10.135Z,15.88
2023-05-15T10:41:16.449Z,18.83
2023-05-15T10:43:47.078Z,18.20
2023-05-15T10:46:41.731Z,17.17
2023-05-15T10:49:10.595Z,18.90
2023-05-15T10:51:40.380Z,15.95
2023-05-15T10:54:35.221Z,16.33
2023-05-15T10:57:06.723Z,22.20
2023-05-15T10:59:35.865Z,19.50
2023-05-15T11:02:23.810Z,20.50
2023-05-15T11:04:57.695Z,17.75
2023-05-15T11:07:26.759Z,19.33
2023-05-15T11:10:40.072Z,20.30
2023-05-15T11:13:22.543Z,24.58
2023-05-15T11:15:51.480Z,20.90
2023-05-15T11:18:21.316Z,21.42
2023-05-15T11:21:18.636Z,23.20
2023-05-15T11:23:48.337Z,20.65
2023-05-15T11:26:16.914Z,20.85
2023-05-15T11:28:47.292Z,24.33
2023-05-15T11:31:31.287Z,22.65
2023-05-15T11:34:06.198Z,21.92
2023-05-15T11:36:37.598Z,22.15
2023-05-15T11:39:32.060Z,22.52
2023-05-15T11:42:12.109Z,22.92
2023-05-15T11:47:24.483Z,21.90
2023-05-15T11:49:53.951Z,22.27
2023-05-15T11:52:23.127Z,23.00
2023-05-15T11:55:16.604Z,20.85
2023-05-15T11:57:47.209Z,23.02
2023-05-15T12:00:17.999Z,24.00
2023-05-15T12:03:16.475Z,24.30
2023-05-15T12:05:57.674Z,23.88
2023-05-15T12:08:53.419Z,23.08
2023-05-15T12:11:23.580Z,27.00
2023-05-15T12:13:54.025Z,23.65
2023-05-15T12:16:52.461Z,23.40
2023-05-15T12:19:28.209Z,27.05
2023-05-15T12:22:08.972Z,23.70
2023-05-15T12:24:39.709Z,25.95
2023-05-15T12:27:09.104Z,18.90
2023-05-15T12:29:38.107Z,22.25
2023-05-15T12:32:21.139Z,25.25
2023-05-15T12:34:49.977Z,24.27
2023-05-15T12:37:21.676Z,22.35
2023-05-15T12:40:09.010Z,19.30
2023-05-15T12:42:42.404Z,21.60
2023-05-15T12:45:15.515Z,22.13
2023-05-15T12:48:07.889Z,19.77
2023-05-15T12:50:40.035Z,20.58
2023-05-15T12:53:09.578Z,19.15
2023-05-15T12:55:57.124Z,20.17
2023-05-15T12:58:25.816Z,18.75
2023-05-15T13:01:01.260Z,18.10
2023-05-15T13:03:44.419Z,18.50
2023-05-15T13:06:18.203Z,21.45
2023-05-15T13:08:52.215Z,24.15
2023-05-15T13:11:22.712Z,24.48
2023-05-15T13:14:18.168Z,22.02
2023-05-15T13:16:48.037Z,27.58
2023-05-15T13:19:18.109Z,23.60
2023-05-15T13:21:50.857Z,27.33
2023-05-15T13:24:20.241Z,29.42
2023-05-15T13:26:48.926Z,23.02
2023-05-15T13:29:17.851Z,24.08
2023-05-15T13:31:59.465Z,23.70
2023-05-15T13:34:29.501Z,26.25
2023-05-15T13:36:57.996Z,24.17
2023-05-15T13:39:27.513Z,25.75
2023-05-15T13:42:21.227Z,24.27
2023-05-15T13:44:49.798Z,24.95
2023-05-15T13:47:18.261Z,29.05
2023-05-15T13:54:35.552Z,19.75
2023-05-15T13:57:04.666Z,20.27
2023-05-15T13:59:33.664Z,21.48
2023-05-15T14:02:02.142Z,18.33
2023-05-15T14:04:56.072Z,21.77
2023-05-15T14:07:25.064Z,17.02
2023-05-15T14:09:55.028Z,16.38
2023-05-15T14:12:50.411Z,18.63
2023-05-15T14:15:18.936Z,15.15
2023-05-15T14:17:49.005Z,19.33
2023-05-15T14:20:43.177Z,16.98
2023-05-15T14:23:11.653Z,20.83
2023-05-15T14:25:42.545Z,19.90
2023-05-15T14:28:11.284Z,18.20
2023-05-15T14:30:40.656Z,19.45
2023-05-15T14:33:09.556Z,17.92
2023-05-15T14:35:37.947Z,21.08
2023-05-15T14:38:06.687Z,19.95
2023-05-15T14:40:35.043Z,20.83
2023-05-15T14:43:11.388Z,19.55
2023-05-15T14:45:39.751Z,24.20
2023-05-15T14:48:08.311Z,24.80
2023-05-15T14:50:36.755Z,21.83
2023-05-15T14:53:10.254Z,23.42
2023-05-15T14:55:39.093Z,21.70
2023-05-15T14:58:11.182Z,21.70
2023-05-15T15:00:39.597Z,19.30
2023-05-15T15:03:08.141Z,20.83
2023-05-15T15:05:44.491Z,21.55
2023-05-15T15:08:12.896Z,22.08
2023-05-15T15:10:43.324Z,21.98
2023-05-15T15:13:14.005Z,21.30
2023-05-15T15:15:42.411Z,21.83
2023-05-15T15:18:13.811Z,19.92
2023-05-15T15:20:42.925Z,22.45
2023-05-15T15:23:11.231Z,19.35
2023-05-15T15:25:40.106Z,21.50
2023-05-15T15:28:10.691Z,24.40
2023-05-15T15:30:42.847Z,25.35
2023-05-15T15:33:11.527Z,25.88
2023-05-15T15:35:40.211Z,25.48
2023-05-15T15:38:14.953Z,23.90
2023-05-15T15:40:46.249Z,22.27
2023-05-15T15:43:14.602Z,24.17
2023-05-15T15:45:44.390Z,23.05
2023-05-15T15:48:13.978Z,23.50
2023-05-15T15:50:48.942Z,24.95
2023-05-15T15:53:17.410Z,22.52
2023-05-15T15:55:47.090Z,27.92
2023-05-15T15:58:15.880Z,24.35
2023-05-15T16:00:48.536Z,23.48
2023-05-15T16:03:17.307Z,24.85
2023-05-15T16:05:45.761Z,26.13
2023-05-15T16:08:14.106Z,25.42
2023-05-15T16:10:42.573Z,27.30
2023-05-15T16:13:20.815Z,23.40
2023-05-15T16:15:51.815Z,28.77
2023-05-15T16:18:20.202Z,31.35
2023-05-15T16:20:48.703Z,36.35
2023-05-15T16:23:17.331Z,40.97
2023-05-15T16:25:46.200Z,41.42
2023-05-15T16:28:15.422Z,54.03
2023-05-15T16:30:49.588Z,40.70
2023-05-15T16:33:24.842Z,38.22
2023-05-15T16:35:53.612Z,37.90
2023-05-15T16:38:22.804Z,32.47
2023-05-15T16:40:52.654Z,29.60
2023-05-15T16:43:21.745Z,28.40
2023-05-15T16:45:57.768Z,31.95
2023-05-15T16:48:28.007Z,27.08
2023-05-15T16:50:56.357Z,27.92
2023-05-15T16:53:24.838Z,24.27
2023-05-15T16:55:55.443Z,23.08
2023-05-15T16:58:24.289Z,22.02
2023-05-15T17:00:52.732Z,19.55
2023-05-15T17:03:21.351Z,19.05
2023-05-15T17:05:51.273Z,13.73
2023-05-15T17:08:20.069Z,10.40
2023-05-15T17:10:48.411Z,10.23
2023-05-15T17:13:16.937Z,9.75
2023-05-15T17:15:47.056Z,10.27
2023-05-15T17:18:16.386Z,11.00
2023-05-15T17:20:45.092Z,10.50
2023-05-15T17:23:18.259Z,10.73
2023-05-15T17:25:46.736Z,10.73
2023-05-15T17:28:15.535Z,16.02
2023-05-15T17:30:49.112Z,15.90
2023-05-15T17:33:20.532Z,20.33
2023-05-15T17:35:48.947Z,25.33
2023-05-15T17:38:18.686Z,23.25
2023-05-15T17:40:47.171Z,25.95
2023-05-15T17:43:26.526Z,25.52
2023-05-15T17:45:55.124Z,24.40
2023-05-15T17:48:23.803Z,25.10
2023-05-15T17:50:52.845Z,23.70
2023-05-15T17:53:39.538Z,25.27
2023-05-15T17:56:08.144Z,25.30
2023-05-15T17:58:36.592Z,22.50
2023-05-15T18:01:05.191Z,23.80
2023-05-15T18:03:42.858Z,23.73
2023-05-15T18:06:13.393Z,24.60
2023-05-15T18:08:44.357Z,25.70
2023-05-15T18:11:21.502Z,23.98
2023-05-15T18:13:53.393Z,21.92
2023-05-15T18:16:22.046Z,21.50
2023-05-15T18:18:52.174Z,21.90
2023-05-15T18:21:20.996Z,25.80
2023-05-15T18:24:04.618Z,24.25
2023-05-15T18:26:34.529Z,25.67
2023-05-15T18:29:04.249Z,24.48
2023-05-15T18:31:33.044Z,23.63
2023-05-15T18:34:27.106Z,26.00
2023-05-15T18:36:55.621Z,28.15
2023-05-15T18:39:25.450Z,23.42
2023-05-15T18:42:18.905Z,25.48
2023-05-15T18:44:49.469Z,21.55
2023-05-15T18:47:18.826Z,21.15
2023-05-15T18:49:47.532Z,17.95
2023-05-15T18:52:16.199Z,19.58
2023-05-15T18:54:46.121Z,20.83
2023-05-15T18:57:15.169Z,19.70
2023-05-15T18:59:44.375Z,19.60
2023-05-15T19:02:13.046Z,19.10
2023-05-15T19:04:41.934Z,20.92
2023-05-15T19:07:10.494Z,18.80
2023-05-15T19:09:39.242Z,19.25
2023-05-15T19:12:09.249Z,18.95
2023-05-15T19:14:37.648Z,18.20
2023-05-15T19:17:06.610Z,20.25
2023-05-15T19:19:35.093Z,18.27
2023-05-15T19:22:03.968Z,16.65
2023-05-15T19:24:33.496Z,15.23
2023-05-15T19:27:02.475Z,15.40
2023-05-15T19:29:32.700Z,19.15
2023-05-15T19:32:02.739Z,15.90
2023-05-15T19:34:31.186Z,13.80
2023-05-15T19:36:59.868Z,14.80
2023-05-15T19:39:28.232Z,18.52
2023-05-15T19:41:57.833Z,16.23
2023-05-15T19:44:26.475Z,15.10
2023-05-15T19:46:56.327Z,12.90
2023-05-15T19:49:24.764Z,17.23
2023-05-15T19:51:53.184Z,15.18
2023-05-15T19:54:22.760Z,17.17
2023-05-15T19:56:51.310Z,16.58
2023-05-15T19:59:19.792Z,14.05
2023-05-15T20:01:48.332Z,16.77
2023-05-15T20:04:19.078Z,16.65
2023-05-15T20:06:47.810Z,14.43
2023-05-15T20:09:16.398Z,17.48
2023-05-15T20:11:45.241Z,17.30
2023-05-15T20:14:15.796Z,15.07
2023-05-15T20:16:44.384Z,14.63
2023-05-15T20:19:12.939Z,15.20
2023-05-15T20:21:43.383Z,15.75
2023-05-15T20:24:11.963Z,14.20
2023-05-15T20:26:40.657Z,20.10
2023-05-15T20:29:09.229Z,14.70
2023-05-15T20:31:38.033Z,15.25
2023-05-15T20:34:07.014Z,11.68
2023-05-15T20:36:35.978Z,13.20
2023-05-15T20:39:07.203Z,13.13
2023-05-15T20:41:36.154Z,12.23
2023-05-15T20:44:04.631Z,11.40
2023-05-15T20:46:33.179Z,10.05
2023-05-15T20:49:01.760Z,9.57
2023-05-15T20:51:30.155Z,8.50
2023-05-15T20:53:58.606Z,7.78
2023-05-15T20:56:28.427Z,8.93
2023-05-15T20:58:59.669Z,6.90
2023-05-15T21:01:28.403Z,6.32
2023-05-15T21:03:56.840Z,9.55
2023-05-15T21:06:25.402Z,7.32
2023-05-15T21:08:54.098Z,7.15
2023-05-15T21:11:22.668Z,7.57
2023-05-15T21:13:52.436Z,7.03
2023-05-15T21:16:20.965Z,9.77
2023-05-15T21:18:49.335Z,9.40
2023-05-15T21:21:18.898Z,8.20
2023-05-15T21:23:47.910Z,6.47
2023-05-15T21:26:16.615Z,7.65
2023-05-15T21:28:45.020Z,8.70
2023-05-15T21:31:15.039Z,7.43
2023-05-15T21:33:43.437Z,7.57
2023-05-15T21:36:12.386Z,9.90
2023-05-15T21:38:41.235Z,8.10
2023-05-15T21:41:09.809Z,10.63
2023-05-15T21:43:38.158Z,8.95
2023-05-15T21:46:06.616Z,9.38
2023-05-15T21:48:36.525Z,9.63
2023-05-15T21:51:04.950Z,10.13
2023-05-15T21:53:33.326Z,9.65
2023-05-15T21:56:02.768Z,6.82
2023-05-15T21:58:31.179Z,8.60
2023-05-15T22:00:59.630Z,6.45
2023-05-15T22:03:28.149Z,9.00
2023-05-15T22:05:57.933Z,7.78
2023-05-15T22:08:26.779Z,7.10
2023-05-15T22:10:55.112Z,11.13
2023-05-15T22:13:23.471Z,7.72
2023-05-15T22:15:51.893Z,12.57
2023-05-15T22:18:21.160Z,8.85
2023-05-15T22:20:50.378Z,9.00
2023-05-15T22:23:20.141Z,7.25
2023-05-15T22:25:49.220Z,9.10
2023-05-15T22:28:17.885Z,7.15
2023-05-15T22:30:46.396Z,8.70
2023-05-15T22:33:14.921Z,11.18
2023-05-15T22:35:44.109Z,8.35
2023-05-15T22:38:12.520Z,7.93
2023-05-15T22:40:42.406Z,9.50
2023-05-15T22:43:10.994Z,8.73
2023-05-15T22:45:39.368Z,8.43
2023-05-15T22:48:08.126Z,6.07
2023-05-15T22:50:36.667Z,6.72
2023-05-15T22:53:05.061Z,7.38
2023-05-15T22:55:33.586Z,9.95
2023-05-15T22:58:03.870Z,9.88
2023-05-15T23:00:32.270Z,6.45
2023-05-15T23:03:00.780Z,7.55
2023-05-15T23:05:29.176Z,8.18
2023-05-15T23:07:57.660Z,7.13
2023-05-15T23:10:27.296Z,7.53
2023-05-15T23:12:56.244Z,8.85
2023-05-15T23:15:26.233Z,7.43
2023-05-15T23:17:54.960Z,9.88
2023-05-15T23:20:23.799Z,8.90
2023-05-15T23:22:52.560Z,8.70
2023-05-15T23:25:21.256Z,8.65
2023-05-15T23:27:49.645Z,8.52
2023-05-15T23:30:18.455Z,8.57
2023-05-15T23:32:48.143Z,11.13
2023-05-15T23:35:16.828Z,10.48
2023-05-15T23:37:45.180Z,10.00
2023-05-15T23:40:14.736Z,9.75
2023-05-15T23:42:43.280Z,7.78
2023-05-15T23:45:13.689Z,7.85
2023-05-15T23:47:42.391Z,10.57
2023-05-15T23:50:12.325Z,7.95
2023-05-15T23:52:40.771Z,6.55
2023-05-15T23:55:09.657Z,9.23
2023-05-15T23:57:37.984Z,5.95
